sensor_id;sensor_type;location;lat;lon;timestamp;pressure;altitude;pressure_sealevel;temperature;humidity
47054;BME280;32811;52.382;5.270;2022-12-18T00:03:41;102872.94;;;-4.54;100.00
47054;BME280;32811;52.382;5.270;2022-12-18T00:06:09;102853.69;;;-4.71;100.00
47054;BME280;32811;52.382;5.270;2022-12-18T00:08:36;102870.28;;;-4.55;100.00
47054;BME280;32811;52.382;5.270;2022-12-18T00:11:08;102871.03;;;-4.56;100.00
47054;BME280;32811;52.382;5.270;2022-12-18T00:13:35;102860.78;;;-4.58;100.00
47054;BME280;32811;52.382;5.270;2022-12-18T00:16:04;102888.97;;;-4.53;100.00
47054;BME280;32811;52.382;5.270;2022-12-18T00:18:31;102875.34;;;-4.64;100.00
47054;BME280;32811;52.382;5.270;2022-12-18T00:21:00;102885.72;;;-4.52;100.00
47054;BME280;32811;52.382;5.270;2022-12-18T00:23:28;102867.31;;;-4.60;100.00
47054;BME280;32811;52.382;5.270;2022-12-18T00:25:59;102878.31;;;-4.51;100.00
47054;BME280;32811;52.382;5.270;2022-12-18T00:28:26;102862.59;;;-4.57;100.00
47054;BME280;32811;52.382;5.270;2022-12-18T00:31:05;102875.47;;;-4.54;100.00
47054;BME280;32811;52.382;5.270;2022-12-18T00:33:32;102873.38;;;-4.58;100.00
47054;BME280;32811;52.382;5.270;2022-12-18T00:36:03;102872.22;;;-4.62;100.00
47054;BME280;32811;52.382;5.270;2022-12-18T00:38:30;102865.09;;;-4.66;100.00
47054;BME280;32811;52.382;5.270;2022-12-18T00:40:58;102875.91;;;-4.58;100.00
47054;BME280;32811;52.382;5.270;2022-12-18T00:43:25;102880.94;;;-4.58;100.00
47054;BME280;32811;52.382;5.270;2022-12-18T00:45:52;102885.41;;;-4.64;100.00
47054;BME280;32811;52.382;5.270;2022-12-18T00:48:20;102879.78;;;-4.62;100.00
47054;BME280;32811;52.382;5.270;2022-12-18T00:50:48;102864.63;;;-4.70;100.00
47054;BME280;32811;52.382;5.270;2022-12-18T00:53:15;102869.69;;;-4.62;100.00
47054;BME280;32811;52.382;5.270;2022-12-18T00:55:43;102875.47;;;-4.63;100.00
47054;BME280;32811;52.382;5.270;2022-12-18T00:58:15;102863.88;;;-4.69;100.00
47054;BME280;32811;52.382;5.270;2022-12-18T01:00:43;102876.66;;;-4.59;100.00
47054;BME280;32811;52.382;5.270;2022-12-18T01:03:13;102863.44;;;-4.65;100.00
47054;BME280;32811;52.382;5.270;2022-12-18T01:05:42;102853.53;;;-4.72;100.00
47054;BME280;32811;52.382;5.270;2022-12-18T01:08:09;102867.31;;;-4.69;100.00
47054;BME280;32811;52.382;5.270;2022-12-18T01:10:36;102859.59;;;-4.79;100.00
47054;BME280;32811;52.382;5.270;2022-12-18T01:13:06;102877.06;;;-4.72;100.00
47054;BME280;32811;52.382;5.270;2022-12-18T01:15:33;102874.09;;;-4.76;100.00
47054;BME280;32811;52.382;5.270;2022-12-18T01:18:00;102878.56;;;-4.74;100.00
47054;BME280;32811;52.382;5.270;2022-12-18T01:20:27;102875.59;;;-4.78;100.00
47054;BME280;32811;52.382;5.270;2022-12-18T01:22:54;102880.94;;;-4.75;100.00
47054;BME280;32811;52.382;5.270;2022-12-18T01:25:21;102865.22;;;-4.82;100.00
47054;BME280;32811;52.382;5.270;2022-12-18T01:27:48;102880.44;;;-4.80;100.00
47054;BME280;32811;52.382;5.270;2022-12-18T01:30:15;102853.94;;;-4.85;100.00
47054;BME280;32811;52.382;5.270;2022-12-18T01:32:41;102872.34;;;-4.77;100.00
47054;BME280;32811;52.382;5.270;2022-12-18T01:35:08;102873.84;;;-4.71;100.00
47054;BME280;32811;52.382;5.270;2022-12-18T01:37:35;102870.69;;;-4.77;100.00
47054;BME280;32811;52.382;5.270;2022-12-18T01:40:02;102879.16;;;-4.76;100.00
47054;BME280;32811;52.382;5.270;2022-12-18T01:42:30;102882.09;;;-4.81;100.00
47054;BME280;32811;52.382;5.270;2022-12-18T01:45:01;102883.59;;;-4.74;100.00
47054;BME280;32811;52.382;5.270;2022-12-18T01:47:36;102895.88;;;-4.86;100.00
47054;BME280;32811;52.382;5.270;2022-12-18T01:52:50;102896.75;;;-4.85;100.00
47054;BME280;32811;52.382;5.270;2022-12-18T01:55:20;102900.91;;;-4.86;100.00
47054;BME280;32811;52.382;5.270;2022-12-18T01:57:47;102915.44;;;-4.83;100.00
47054;BME280;32811;52.382;5.270;2022-12-18T02:00:18;102912.44;;;-4.88;100.00
47054;BME280;32811;52.382;5.270;2022-12-18T02:02:47;102923.13;;;-4.90;100.00
47054;BME280;32811;52.382;5.270;2022-12-18T02:05:19;102929.19;;;-4.88;100.00
47054;BME280;32811;52.382;5.270;2022-12-18T02:08:21;102940.91;;;-4.89;100.00
47054;BME280;32811;52.382;5.270;2022-12-18T02:19:39;102945.63;;;-4.92;100.00
47054;BME280;32811;52.382;5.270;2022-12-18T02:27:27;102940.41;;;-5.02;100.00
47054;BME280;32811;52.382;5.270;2022-12-18T02:29:57;102940.53;;;-5.01;100.00
47054;BME280;32811;52.382;5.270;2022-12-18T02:32:29;102918.41;;;-5.12;100.00
47054;BME280;32811;52.382;5.270;2022-12-18T02:34:58;102930.63;;;-4.99;100.00
47054;BME280;32811;52.382;5.270;2022-12-18T02:37:27;102899.78;;;-5.05;100.00
47054;BME280;32811;52.382;5.270;2022-12-18T02:39:57;102907.13;;;-4.91;100.00
47054;BME280;32811;52.382;5.270;2022-12-18T02:42:26;102906.78;;;-4.94;100.00
47054;BME280;32811;52.382;5.270;2022-12-18T02:44:55;102898.31;;;-5.03;100.00
47054;BME280;32811;52.382;5.270;2022-12-18T02:47:25;102897.13;;;-5.07;100.00
47054;BME280;32811;52.382;5.270;2022-12-18T02:52:30;102884.38;;;-5.08;100.00
47054;BME280;32811;52.382;5.270;2022-12-18T03:00:22;102879.56;;;-5.23;100.00
47054;BME280;32811;52.382;5.270;2022-12-18T03:05:51;102868.28;;;-5.35;100.00
47054;BME280;32811;52.382;5.270;2022-12-18T03:08:22;102867.81;;;-5.39;100.00
47054;BME280;32811;52.382;5.270;2022-12-18T03:11:01;102865.97;;;-5.49;100.00
47054;BME280;32811;52.382;5.270;2022-12-18T03:13:36;102871.06;;;-5.40;100.00
47054;BME280;32811;52.382;5.270;2022-12-18T03:16:06;102879.78;;;-5.46;100.00
47054;BME280;32811;52.382;5.270;2022-12-18T03:18:44;102869.03;;;-5.60;100.00
47054;BME280;32811;52.382;5.270;2022-12-18T03:21:14;102861.94;;;-5.65;100.00
47054;BME280;32811;52.382;5.270;2022-12-18T03:23:48;102860.72;;;-5.68;100.00
47054;BME280;32811;52.382;5.270;2022-12-18T03:26:25;102865.50;;;-5.63;100.00
47054;BME280;32811;52.382;5.270;2022-12-18T03:28:57;102871.66;;;-5.68;100.00
47054;BME280;32811;52.382;5.270;2022-12-18T03:31:28;102856.09;;;-5.72;100.00
47054;BME280;32811;52.382;5.270;2022-12-18T03:33:59;102853.28;;;-5.75;100.00
47054;BME280;32811;52.382;5.270;2022-12-18T03:36:31;102850.31;;;-5.80;100.00
47054;BME280;32811;52.382;5.270;2022-12-18T03:38:58;102849.97;;;-5.83;100.00
47054;BME280;32811;52.382;5.270;2022-12-18T03:46:31;102831.59;;;-5.91;100.00
47054;BME280;32811;52.382;5.270;2022-12-18T03:51:53;102845.63;;;-5.93;100.00
47054;BME280;32811;52.382;5.270;2022-12-18T03:54:22;102826.22;;;-6.02;100.00
47054;BME280;32811;52.382;5.270;2022-12-18T03:56:56;102838.97;;;-5.92;100.00
47054;BME280;32811;52.382;5.270;2022-12-18T03:59:24;102829.22;;;-5.98;100.00
47054;BME280;32811;52.382;5.270;2022-12-18T04:01:54;102831.16;;;-5.95;100.00
47054;BME280;32811;52.382;5.270;2022-12-18T04:04:24;102835.13;;;-5.97;100.00
47054;BME280;32811;52.382;5.270;2022-12-18T04:06:52;102840.88;;;-5.98;100.00
47054;BME280;32811;52.382;5.270;2022-12-18T04:09:19;102830.94;;;-6.06;100.00
47054;BME280;32811;52.382;5.270;2022-12-18T04:11:47;102834.91;;;-6.08;100.00
47054;BME280;32811;52.382;5.270;2022-12-18T04:14:14;102827.22;;;-6.09;100.00
47054;BME280;32811;52.382;5.270;2022-12-18T04:16:44;102828.09;;;-6.09;100.00
47054;BME280;32811;52.382;5.270;2022-12-18T04:19:11;102822.03;;;-6.11;100.00
47054;BME280;32811;52.382;5.270;2022-12-18T04:21:38;102822.28;;;-6.16;100.00
47054;BME280;32811;52.382;5.270;2022-12-18T04:24:04;102821.38;;;-6.17;100.00
47054;BME280;32811;52.382;5.270;2022-12-18T04:26:31;102815.88;;;-6.21;100.00
47054;BME280;32811;52.382;5.270;2022-12-18T04:28:58;102810.56;;;-6.24;100.00
47054;BME280;32811;52.382;5.270;2022-12-18T04:31:25;102812.03;;;-6.27;100.00
47054;BME280;32811;52.382;5.270;2022-12-18T04:33:52;102807.97;;;-6.33;100.00
47054;BME280;32811;52.382;5.270;2022-12-18T04:36:19;102814.47;;;-6.35;100.00
47054;BME280;32811;52.382;5.270;2022-12-18T04:38:46;102821.25;;;-6.34;100.00
47054;BME280;32811;52.382;5.270;2022-12-18T04:41:13;102828.97;;;-6.33;100.00
47054;BME280;32811;52.382;5.270;2022-12-18T04:43:40;102827.50;;;-6.31;100.00
47054;BME280;32811;52.382;5.270;2022-12-18T04:46:08;102825.22;;;-6.36;100.00
47054;BME280;32811;52.382;5.270;2022-12-18T04:48:35;102831.00;;;-6.37;100.00
47054;BME280;32811;52.382;5.270;2022-12-18T04:51:04;102841.63;;;-6.40;100.00
47054;BME280;32811;52.382;5.270;2022-12-18T04:53:31;102845.28;;;-6.45;100.00
47054;BME280;32811;52.382;5.270;2022-12-18T04:56:06;102866.25;;;-6.44;100.00
47054;BME280;32811;52.382;5.270;2022-12-18T04:58:33;102864.91;;;-6.50;100.00
47054;BME280;32811;52.382;5.270;2022-12-18T05:01:00;102871.50;;;-6.50;100.00
47054;BME280;32811;52.382;5.270;2022-12-18T05:03:27;102869.41;;;-6.54;100.00
47054;BME280;32811;52.382;5.270;2022-12-18T05:05:54;102872.09;;;-6.53;100.00
47054;BME280;32811;52.382;5.270;2022-12-18T05:08:21;102884.66;;;-6.53;100.00
47054;BME280;32811;52.382;5.270;2022-12-18T05:10:48;102878.66;;;-6.62;100.00
47054;BME280;32811;52.382;5.270;2022-12-18T05:13:15;102884.72;;;-6.60;100.00
47054;BME280;32811;52.382;5.270;2022-12-18T05:15:42;102898.53;;;-6.56;100.00
47054;BME280;32811;52.382;5.270;2022-12-18T05:18:09;102894.28;;;-6.64;100.00
47054;BME280;32811;52.382;5.270;2022-12-18T05:20:36;102894.13;;;-6.66;100.00
47054;BME280;32811;52.382;5.270;2022-12-18T05:23:03;102902.41;;;-6.67;100.00
47054;BME280;32811;52.382;5.270;2022-12-18T05:25:29;102895.44;;;-6.70;100.00
47054;BME280;32811;52.382;5.270;2022-12-18T05:27:57;102897.19;;;-6.69;100.00
47054;BME280;32811;52.382;5.270;2022-12-18T05:30:25;102891.84;;;-6.72;100.00
47054;BME280;32811;52.382;5.270;2022-12-18T05:32:51;102895.09;;;-6.73;100.00
47054;BME280;32811;52.382;5.270;2022-12-18T05:35:19;102888.13;;;-6.75;100.00
47054;BME280;32811;52.382;5.270;2022-12-18T05:37:45;102882.78;;;-6.78;100.00
47054;BME280;32811;52.382;5.270;2022-12-18T05:40:12;102869.56;;;-6.84;100.00
47054;BME280;32811;52.382;5.270;2022-12-18T05:42:39;102875.97;;;-6.79;100.00
47054;BME280;32811;52.382;5.270;2022-12-18T05:45:07;102875.97;;;-6.79;100.00
47054;BME280;32811;52.382;5.270;2022-12-18T05:47:34;102883.84;;;-6.76;100.00
47054;BME280;32811;52.382;5.270;2022-12-18T05:50:01;102889.88;;;-6.74;100.00
47054;BME280;32811;52.382;5.270;2022-12-18T05:52:27;102871.59;;;-6.73;100.00
47054;BME280;32811;52.382;5.270;2022-12-18T05:54:54;102875.47;;;-6.68;100.00
47054;BME280;32811;52.382;5.270;2022-12-18T05:57:21;102864.06;;;-6.73;100.00
47054;BME280;32811;52.382;5.270;2022-12-18T05:59:48;102871.91;;;-6.70;100.00
47054;BME280;32811;52.382;5.270;2022-12-18T06:02:15;102854.19;;;-6.72;100.00
47054;BME280;32811;52.382;5.270;2022-12-18T06:04:43;102845.44;;;-6.75;100.00
47054;BME280;32811;52.382;5.270;2022-12-18T06:07:10;102858.47;;;-6.71;100.00
47054;BME280;32811;52.382;5.270;2022-12-18T06:09:37;102854.91;;;-6.73;100.00
47054;BME280;32811;52.382;5.270;2022-12-18T06:12:04;102857.41;;;-6.73;100.00
47054;BME280;32811;52.382;5.270;2022-12-18T06:14:31;102855.66;;;-6.74;100.00
47054;BME280;32811;52.382;5.270;2022-12-18T06:16:58;102837.63;;;-6.85;100.00
47054;BME280;32811;52.382;5.270;2022-12-18T06:19:25;102845.13;;;-6.78;100.00
47054;BME280;32811;52.382;5.270;2022-12-18T06:21:53;102857.59;;;-6.71;100.00
47054;BME280;32811;52.382;5.270;2022-12-18T06:24:19;102856.53;;;-6.73;100.00
47054;BME280;32811;52.382;5.270;2022-12-18T06:26:46;102858.88;;;-6.75;100.00
47054;BME280;32811;52.382;5.270;2022-12-18T06:29:13;102843.31;;;-6.79;100.00
47054;BME280;32811;52.382;5.270;2022-12-18T06:31:40;102834.25;;;-6.86;100.00
47054;BME280;32811;52.382;5.270;2022-12-18T06:34:07;102841.38;;;-6.82;100.00
47054;BME280;32811;52.382;5.270;2022-12-18T06:36:34;102833.19;;;-6.88;100.00
47054;BME280;32811;52.382;5.270;2022-12-18T06:39:02;102837.63;;;-6.85;100.00
47054;BME280;32811;52.382;5.270;2022-12-18T06:41:29;102823.41;;;-6.94;100.00
47054;BME280;32811;52.382;5.270;2022-12-18T06:43:57;102818.38;;;-6.94;100.00
47054;BME280;32811;52.382;5.270;2022-12-18T06:46:26;102819.09;;;-6.95;100.00
47054;BME280;32811;52.382;5.270;2022-12-18T06:48:52;102809.22;;;-6.93;100.00
47054;BME280;32811;52.382;5.270;2022-12-18T06:51:20;102813.38;;;-6.94;100.00
47054;BME280;32811;52.382;5.270;2022-12-18T06:53:48;102803.91;;;-6.96;100.00
47054;BME280;32811;52.382;5.270;2022-12-18T06:56:15;102810.00;;;-7.01;100.00
47054;BME280;32811;52.382;5.270;2022-12-18T06:58:42;102785.88;;;-7.08;100.00
47054;BME280;32811;52.382;5.270;2022-12-18T07:01:10;102798.53;;;-6.99;100.00
47054;BME280;32811;52.382;5.270;2022-12-18T07:03:39;102796.09;;;-7.06;100.00
47054;BME280;32811;52.382;5.270;2022-12-18T07:06:13;102791.06;;;-7.06;100.00
47054;BME280;32811;52.382;5.270;2022-12-18T07:08:40;102792.53;;;-7.08;100.00
47054;BME280;32811;52.382;5.270;2022-12-18T07:11:07;102793.41;;;-7.08;100.00
47054;BME280;32811;52.382;5.270;2022-12-18T07:13:34;102786.22;;;-7.05;100.00
47054;BME280;32811;52.382;5.270;2022-12-18T07:16:06;102789.53;;;-7.13;100.00
47054;BME280;32811;52.382;5.270;2022-12-18T07:18:41;102790.97;;;-7.15;100.00
47054;BME280;32811;52.382;5.270;2022-12-18T07:21:13;102790.41;;;-7.13;100.00
47054;BME280;32811;52.382;5.270;2022-12-18T07:23:40;102777.31;;;-7.10;100.00
47054;BME280;32811;52.382;5.270;2022-12-18T07:26:10;102775.75;;;-7.17;100.00
47054;BME280;32811;52.382;5.270;2022-12-18T07:28:39;102779.50;;;-7.13;100.00
47054;BME280;32811;52.382;5.270;2022-12-18T07:31:10;102775.53;;;-7.11;100.00
47054;BME280;32811;52.382;5.270;2022-12-18T07:33:37;102777.72;;;-7.14;100.00
47054;BME280;32811;52.382;5.270;2022-12-18T07:36:06;102776.75;;;-7.07;100.00
47054;BME280;32811;52.382;5.270;2022-12-18T07:38:34;102772.84;;;-7.13;100.00
47054;BME280;32811;52.382;5.270;2022-12-18T07:41:03;102770.91;;;-7.15;100.00
47054;BME280;32811;52.382;5.270;2022-12-18T07:43:32;102753.34;;;-7.15;100.00
47054;BME280;32811;52.382;5.270;2022-12-18T07:45:59;102758.53;;;-7.14;100.00
47054;BME280;32811;52.382;5.270;2022-12-18T07:48:26;102736.03;;;-7.21;100.00
47054;BME280;32811;52.382;5.270;2022-12-18T07:50:52;102742.59;;;-7.14;100.00
47054;BME280;32811;52.382;5.270;2022-12-18T07:53:19;102752.06;;;-7.12;100.00
47054;BME280;32811;52.382;5.270;2022-12-18T07:55:45;102743.09;;;-7.10;100.00
47054;BME280;32811;52.382;5.270;2022-12-18T07:58:33;102737.50;;;-7.07;100.00
47054;BME280;32811;52.382;5.270;2022-12-18T08:01:17;102730.53;;;-7.10;100.00
47054;BME280;32811;52.382;5.270;2022-12-18T08:03:46;102731.16;;;-7.03;100.00
47054;BME280;32811;52.382;5.270;2022-12-18T08:06:15;102729.47;;;-6.96;100.00
47054;BME280;32811;52.382;5.270;2022-12-18T08:08:42;102719.84;;;-7.00;100.00
47054;BME280;32811;52.382;5.270;2022-12-18T08:11:09;102721.53;;;-6.92;100.00
47054;BME280;32811;52.382;5.270;2022-12-18T08:13:36;102725.81;;;-6.91;100.00
47054;BME280;32811;52.382;5.270;2022-12-18T08:16:06;102722.72;;;-6.88;100.00
47054;BME280;32811;52.382;5.270;2022-12-18T08:18:37;102736.25;;;-6.79;100.00
47054;BME280;32811;52.382;5.270;2022-12-18T08:21:17;102747.09;;;-6.71;100.00
47054;BME280;32811;52.382;5.270;2022-12-18T08:23:46;102741.81;;;-6.65;100.00
47054;BME280;32811;52.382;5.270;2022-12-18T08:26:14;102736.78;;;-6.65;100.00
47054;BME280;32811;52.382;5.270;2022-12-18T08:28:41;102756.25;;;-6.56;100.00
47054;BME280;32811;52.382;5.270;2022-12-18T08:31:08;102752.41;;;-6.52;100.00
47054;BME280;32811;52.382;5.270;2022-12-18T08:33:36;102752.34;;;-6.45;100.00
47054;BME280;32811;52.382;5.270;2022-12-18T08:36:04;102750.31;;;-6.40;100.00
47054;BME280;32811;52.382;5.270;2022-12-18T08:38:32;102752.81;;;-6.40;100.00
47054;BME280;32811;52.382;5.270;2022-12-18T08:40:59;102759.91;;;-6.36;100.00
47054;BME280;32811;52.382;5.270;2022-12-18T08:43:27;102756.84;;;-6.34;100.00
47054;BME280;32811;52.382;5.270;2022-12-18T08:46:12;102756.41;;;-6.30;100.00
47054;BME280;32811;52.382;5.270;2022-12-18T08:48:39;102760.72;;;-6.29;100.00
47054;BME280;32811;52.382;5.270;2022-12-18T08:51:05;102760.31;;;-6.24;100.00
47054;BME280;32811;52.382;5.270;2022-12-18T08:53:32;102767.72;;;-6.17;100.00
47054;BME280;32811;52.382;5.270;2022-12-18T08:56:01;102761.06;;;-6.17;100.00
47054;BME280;32811;52.382;5.270;2022-12-18T08:58:29;102746.47;;;-6.12;100.00
47054;BME280;32811;52.382;5.270;2022-12-18T09:01:07;102744.94;;;-5.94;100.00
47054;BME280;32811;52.382;5.270;2022-12-18T09:03:35;102738.28;;;-5.85;100.00
47054;BME280;32811;52.382;5.270;2022-12-18T09:06:02;102734.63;;;-5.80;100.00
47054;BME280;32811;52.382;5.270;2022-12-18T09:08:29;102731.97;;;-5.73;100.00
47054;BME280;32811;52.382;5.270;2022-12-18T09:10:56;102736.47;;;-5.61;100.00
47054;BME280;32811;52.382;5.270;2022-12-18T09:13:23;102741.22;;;-5.56;100.00
47054;BME280;32811;52.382;5.270;2022-12-18T09:15:52;102728.97;;;-5.44;100.00
47054;BME280;32811;52.382;5.270;2022-12-18T09:18:21;102722.03;;;-5.38;100.00
47054;BME280;32811;52.382;5.270;2022-12-18T09:20:48;102710.00;;;-5.40;100.00
47054;BME280;32811;52.382;5.270;2022-12-18T09:23:16;102709.16;;;-5.32;100.00
47054;BME280;32811;52.382;5.270;2022-12-18T09:25:43;102709.59;;;-5.28;100.00
47054;BME280;32811;52.382;5.270;2022-12-18T09:28:12;102709.63;;;-5.19;100.00
47054;BME280;32811;52.382;5.270;2022-12-18T09:30:47;102715.53;;;-5.10;100.00
47054;BME280;32811;52.382;5.270;2022-12-18T09:33:16;102720.59;;;-5.01;100.00
47054;BME280;32811;52.382;5.270;2022-12-18T09:35:44;102721.47;;;-4.92;100.00
47054;BME280;32811;52.382;5.270;2022-12-18T09:38:18;102714.69;;;-4.84;100.00
47054;BME280;32811;52.382;5.270;2022-12-18T09:40:56;102717.50;;;-4.81;100.00
47054;BME280;32811;52.382;5.270;2022-12-18T09:46:06;102699.84;;;-4.72;100.00
47054;BME280;32811;52.382;5.270;2022-12-18T09:48:42;102697.44;;;-4.62;100.00
47054;BME280;32811;52.382;5.270;2022-12-18T09:53:45;102699.41;;;-4.51;100.00
47054;BME280;32811;52.382;5.270;2022-12-18T09:56:18;102669.72;;;-4.53;100.00
47054;BME280;32811;52.382;5.270;2022-12-18T09:58:56;102656.50;;;-4.42;100.00
47054;BME280;32811;52.382;5.270;2022-12-18T10:01:25;102674.13;;;-4.33;100.00
47054;BME280;32811;52.382;5.270;2022-12-18T10:04:07;102685.22;;;-4.23;100.00
47054;BME280;32811;52.382;5.270;2022-12-18T10:06:55;102679.56;;;-4.20;100.00
47054;BME280;32811;52.382;5.270;2022-12-18T10:12:13;102686.19;;;-4.03;100.00
47054;BME280;32811;52.382;5.270;2022-12-18T10:17:35;102668.78;;;-3.91;100.00
47054;BME280;32811;52.382;5.270;2022-12-18T10:25:35;102653.34;;;-3.86;100.00
47054;BME280;32811;52.382;5.270;2022-12-18T10:28:16;102675.84;;;-3.79;100.00
47054;BME280;32811;52.382;5.270;2022-12-18T10:30:44;102670.63;;;-3.71;100.00
47054;BME280;32811;52.382;5.270;2022-12-18T10:33:17;102657.28;;;-3.70;100.00
47054;BME280;32811;52.382;5.270;2022-12-18T10:35:45;102631.75;;;-3.73;100.00
47054;BME280;32811;52.382;5.270;2022-12-18T10:41:01;102644.31;;;-3.65;100.00
47054;BME280;32811;52.382;5.270;2022-12-18T10:51:08;102627.00;;;-3.51;100.00
47054;BME280;32811;52.382;5.270;2022-12-18T10:53:40;102639.97;;;-3.38;100.00
47054;BME280;32811;52.382;5.270;2022-12-18T10:56:08;102629.41;;;-3.34;100.00
47054;BME280;32811;52.382;5.270;2022-12-18T10:58:37;102640.06;;;-3.28;100.00
47054;BME280;32811;52.382;5.270;2022-12-18T11:01:16;102628.94;;;-3.30;100.00
47054;BME280;32811;52.382;5.270;2022-12-18T11:03:45;102629.97;;;-3.28;100.00
47054;BME280;32811;52.382;5.270;2022-12-18T11:06:18;102623.41;;;-3.26;100.00
47054;BME280;32811;52.382;5.270;2022-12-18T11:09:00;102618.34;;;-3.26;100.00
47054;BME280;32811;52.382;5.270;2022-12-18T11:11:37;102612.31;;;-3.18;100.00
47054;BME280;32811;52.382;5.270;2022-12-18T11:14:13;102599.69;;;-3.18;100.00
47054;BME280;32811;52.382;5.270;2022-12-18T11:16:46;102591.38;;;-3.17;100.00
47054;BME280;32811;52.382;5.270;2022-12-18T11:19:36;102585.31;;;-3.19;100.00
47054;BME280;32811;52.382;5.270;2022-12-18T11:22:19;102597.34;;;-3.06;100.00
47054;BME280;32811;52.382;5.270;2022-12-18T11:28:01;102600.97;;;-2.94;100.00
47054;BME280;32811;52.382;5.270;2022-12-18T11:30:31;102597.09;;;-2.90;100.00
47054;BME280;32811;52.382;5.270;2022-12-18T11:35:39;102567.88;;;-2.97;100.00
47054;BME280;32811;52.382;5.270;2022-12-18T11:38:26;102584.63;;;-2.78;100.00
47054;BME280;32811;52.382;5.270;2022-12-18T11:43:27;102579.19;;;-2.73;100.00
47054;BME280;32811;52.382;5.270;2022-12-18T11:46:05;102570.63;;;-2.64;100.00
47054;BME280;32811;52.382;5.270;2022-12-18T11:48:37;102572.91;;;-2.57;100.00
47054;BME280;32811;52.382;5.270;2022-12-18T11:51:13;102557.47;;;-2.71;100.00
47054;BME280;32811;52.382;5.270;2022-12-18T11:53:42;102571.31;;;-2.57;100.00
47054;BME280;32811;52.382;5.270;2022-12-18T11:59:15;102544.88;;;-2.60;100.00
47054;BME280;32811;52.382;5.270;2022-12-18T12:01:54;102538.56;;;-2.55;100.00
47054;BME280;32811;52.382;5.270;2022-12-18T12:04:43;102538.94;;;-2.51;100.00
47054;BME280;32811;52.382;5.270;2022-12-18T12:15:46;102520.38;;;-2.41;100.00
47054;BME280;32811;52.382;5.270;2022-12-18T12:21:10;102516.84;;;-2.33;100.00
47054;BME280;32811;52.382;5.270;2022-12-18T12:23:57;102500.41;;;-2.38;100.00
47054;BME280;32811;52.382;5.270;2022-12-18T12:26:34;102480.44;;;-2.45;100.00
47054;BME280;32811;52.382;5.270;2022-12-18T12:29:18;102494.34;;;-2.30;100.00
47054;BME280;32811;52.382;5.270;2022-12-18T12:37:46;102486.50;;;-2.22;100.00
47054;BME280;32811;52.382;5.270;2022-12-18T12:40:20;102480.19;;;-2.17;100.00
47054;BME280;32811;52.382;5.270;2022-12-18T12:43:22;102463.72;;;-2.12;100.00
47054;BME280;32811;52.382;5.270;2022-12-18T12:45:58;102471.44;;;-2.11;100.00
47054;BME280;32811;52.382;5.270;2022-12-18T12:51:22;102460.81;;;-2.06;100.00
47054;BME280;32811;52.382;5.270;2022-12-18T12:53:51;102457.66;;;-2.04;100.00
47054;BME280;32811;52.382;5.270;2022-12-18T12:56:20;102474.97;;;-2.09;100.00
47054;BME280;32811;52.382;5.270;2022-12-18T12:59:08;102475.50;;;-2.13;100.00
47054;BME280;32811;52.382;5.270;2022-12-18T13:04:35;102467.53;;;-2.07;100.00
47054;BME280;32811;52.382;5.270;2022-12-18T13:07:14;102465.09;;;-2.05;100.00
47054;BME280;32811;52.382;5.270;2022-12-18T13:10:19;102454.63;;;-2.00;100.00
47054;BME280;32811;52.382;5.270;2022-12-18T13:15:38;102459.16;;;-2.06;100.00
47054;BME280;32811;52.382;5.270;2022-12-18T13:20:36;102465.88;;;-2.06;100.00
47054;BME280;32811;52.382;5.270;2022-12-18T13:23:39;102462.47;;;-2.07;100.00
47054;BME280;32811;52.382;5.270;2022-12-18T13:36:55;102430.19;;;-1.99;100.00
47054;BME280;32811;52.382;5.270;2022-12-18T13:39:23;102427.66;;;-1.99;100.00
47054;BME280;32811;52.382;5.270;2022-12-18T13:44:38;102395.28;;;-2.03;100.00
47054;BME280;32811;52.382;5.270;2022-12-18T13:47:28;102386.31;;;-2.00;100.00
47054;BME280;32811;52.382;5.270;2022-12-18T13:49:59;102384.78;;;-1.98;100.00
47054;BME280;32811;52.382;5.270;2022-12-18T13:52:35;102370.63;;;-2.06;100.00
47054;BME280;32811;52.382;5.270;2022-12-18T13:55:06;102372.13;;;-1.98;100.00
47054;BME280;32811;52.382;5.270;2022-12-18T13:57:37;102368.44;;;-1.91;100.00
47054;BME280;32811;52.382;5.270;2022-12-18T14:00:25;102364.91;;;-1.93;100.00
47054;BME280;32811;52.382;5.270;2022-12-18T14:02:52;102361.84;;;-1.89;100.00
47054;BME280;32811;52.382;5.270;2022-12-18T14:05:24;102360.22;;;-1.89;100.00
47054;BME280;32811;52.382;5.270;2022-12-18T14:07:53;102351.59;;;-1.91;100.00
47054;BME280;32811;52.382;5.270;2022-12-18T14:10:22;102351.88;;;-1.88;100.00
47054;BME280;32811;52.382;5.270;2022-12-18T14:13:10;102362.97;;;-1.85;100.00
47054;BME280;32811;52.382;5.270;2022-12-18T14:15:44;102368.81;;;-1.86;100.00
47054;BME280;32811;52.382;5.270;2022-12-18T14:18:38;102356.94;;;-1.88;100.00
47054;BME280;32811;52.382;5.270;2022-12-18T14:21:06;102344.66;;;-1.93;100.00
47054;BME280;32811;52.382;5.270;2022-12-18T14:23:40;102352.09;;;-1.84;100.00
47054;BME280;32811;52.382;5.270;2022-12-18T14:26:33;102345.03;;;-1.89;100.00
47054;BME280;32811;52.382;5.270;2022-12-18T14:29:18;102338.78;;;-1.82;100.00
47054;BME280;32811;52.382;5.270;2022-12-18T14:32:08;102342.09;;;-1.83;100.00
47054;BME280;32811;52.382;5.270;2022-12-18T14:34:50;102338.56;;;-1.85;100.00
47054;BME280;32811;52.382;5.270;2022-12-18T14:37:21;102329.97;;;-1.87;100.00
47054;BME280;32811;52.382;5.270;2022-12-18T14:40:02;102326.16;;;-1.82;100.00
47054;BME280;32811;52.382;5.270;2022-12-18T14:42:37;102328.81;;;-1.80;100.00
47054;BME280;32811;52.382;5.270;2022-12-18T14:51:02;102300.97;;;-1.80;100.00
47054;BME280;32811;52.382;5.270;2022-12-18T14:54:14;102302.50;;;-1.82;100.00
47054;BME280;32811;52.382;5.270;2022-12-18T14:56:29;102304.25;;;-1.81;100.00
47054;BME280;32811;52.382;5.270;2022-12-18T14:59:02;102296.94;;;-1.89;100.00
47054;BME280;32811;52.382;5.270;2022-12-18T15:01:34;102290.34;;;-1.86;100.00
47054;BME280;32811;52.382;5.270;2022-12-18T15:04:05;102279.75;;;-1.93;100.00